createdAt,value
2018-09-17T00:01:34.841Z,18.56
2018-09-17T00:04:03.803Z,18.54
2018-09-17T00:06:32.708Z,18.47
2018-09-17T00:09:01.610Z,18.50
2018-09-17T00:11:30.505Z,18.45
2018-09-17T00:13:59.584Z,18.44
2018-09-17T00:16:28.537Z,18.49
2018-09-17T00:18:57.556Z,18.54
2018-09-17T00:21:26.486Z,18.49
2018-09-17T00:23:55.403Z,18.48
2018-09-17T00:26:24.352Z,18.50
2018-09-17T00:28:53.284Z,18.44
2018-09-17T00:31:22.196Z,18.40
2018-09-17T00:33:51.326Z,18.38
2018-09-17T00:36:20.221Z,18.42
2018-09-17T00:38:49.184Z,18.41
2018-09-17T00:41:18.084Z,18.39
2018-09-17T00:43:46.982Z,18.36
2018-09-17T00:46:15.854Z,18.23
2018-09-17T00:48:44.799Z,18.12
2018-09-17T00:51:14.384Z,18.10
2018-09-17T00:53:43.309Z,18.00
2018-09-17T00:56:12.247Z,17.96
2018-09-17T00:58:41.188Z,17.90
2018-09-17T01:01:10.197Z,17.89
2018-09-17T01:03:39.075Z,17.87
2018-09-17T01:06:08.037Z,17.78
2018-09-17T01:08:36.928Z,17.74
2018-09-17T01:11:05.845Z,17.72
2018-09-17T01:13:34.759Z,17.77
2018-09-17T01:16:03.667Z,17.87
2018-09-17T01:18:32.639Z,17.92
2018-09-17T01:21:01.551Z,17.85
2018-09-17T01:23:31.373Z,17.81
2018-09-17T01:26:00.252Z,17.69
2018-09-17T01:28:29.220Z,17.63
2018-09-17T01:30:58.093Z,17.53
2018-09-17T01:33:26.966Z,17.55
2018-09-17T01:35:55.856Z,17.53
2018-09-17T01:38:24.791Z,17.54
2018-09-17T01:40:53.787Z,17.49
2018-09-17T01:43:22.748Z,17.54
2018-09-17T01:45:51.732Z,17.55
2018-09-17T01:48:20.691Z,17.61
2018-09-17T01:50:49.568Z,17.64
2018-09-17T01:53:18.408Z,17.70
2018-09-17T01:55:47.338Z,17.69
2018-09-17T01:58:16.200Z,17.66
2018-09-17T02:00:45.072Z,17.67
2018-09-17T02:03:14.066Z,17.67
2018-09-17T02:05:42.942Z,17.74
2018-09-17T02:08:11.906Z,17.71
2018-09-17T02:10:40.739Z,17.70
2018-09-17T02:13:09.664Z,17.63
2018-09-17T02:15:38.562Z,17.61
2018-09-17T02:18:07.503Z,17.55
2018-09-17T02:20:36.386Z,17.41
2018-09-17T02:23:05.303Z,17.36
2018-09-17T02:25:34.214Z,17.35
2018-09-17T02:28:03.100Z,17.32
2018-09-17T02:30:32.012Z,17.37
2018-09-17T02:33:00.912Z,17.40
2018-09-17T02:35:29.822Z,17.38
2018-09-17T02:37:58.735Z,17.37
2018-09-17T02:40:27.706Z,17.36
2018-09-17T02:42:56.619Z,17.43
2018-09-17T02:45:25.573Z,17.44
2018-09-17T02:47:54.601Z,17.49
2018-09-17T02:50:23.520Z,17.57
2018-09-17T02:52:52.411Z,17.56
2018-09-17T02:55:21.330Z,17.50
2018-09-17T02:57:50.317Z,17.42
2018-09-17T03:00:20.720Z,17.38
2018-09-17T03:02:51.436Z,17.42
2018-09-17T03:05:20.359Z,17.36
2018-09-17T03:07:49.326Z,17.32
2018-09-17T03:10:18.255Z,17.29
2018-09-17T03:12:47.190Z,17.27
2018-09-17T03:15:26.984Z,17.28
2018-09-17T03:17:55.872Z,17.24
2018-09-17T03:20:24.793Z,17.24
2018-09-17T03:22:53.732Z,17.20
2018-09-17T03:25:23.548Z,17.19
2018-09-17T03:27:52.443Z,17.13
2018-09-17T03:30:21.435Z,17.13
2018-09-17T03:32:50.356Z,17.03
2018-09-17T03:35:19.263Z,17.00
2018-09-17T03:37:48.160Z,17.03
2018-09-17T03:40:17.048Z,17.04
2018-09-17T03:42:45.942Z,17.08
2018-09-17T03:45:14.840Z,17.05
2018-09-17T03:47:43.744Z,17.00
2018-09-17T03:50:12.680Z,17.01
2018-09-17T03:52:41.587Z,17.12
2018-09-17T03:55:16.834Z,17.22
2018-09-17T03:57:45.800Z,17.26
2018-09-17T04:00:14.716Z,17.19
2018-09-17T04:02:43.605Z,17.26
2018-09-17T04:05:12.491Z,17.33
2018-09-17T04:07:41.379Z,17.36
2018-09-17T04:10:10.296Z,17.31
2018-09-17T04:12:39.189Z,17.26
2018-09-17T04:15:08.270Z,17.29
2018-09-17T04:17:37.201Z,17.39
2018-09-17T04:20:06.150Z,17.46
2018-09-17T04:22:35.060Z,17.58
2018-09-17T04:25:04.075Z,17.59
2018-09-17T04:27:32.994Z,17.55
2018-09-17T04:30:01.928Z,17.56
2018-09-17T04:32:30.856Z,17.55
2018-09-17T04:34:59.766Z,17.58
2018-09-17T04:37:29.006Z,17.63
2018-09-17T04:39:58.072Z,17.64
2018-09-17T04:42:27.056Z,17.67
2018-09-17T04:44:55.952Z,17.70
2018-09-17T04:47:25.152Z,17.73
2018-09-17T04:49:54.172Z,17.73
2018-09-17T04:52:23.068Z,17.83
2018-09-17T04:54:52.096Z,17.93
2018-09-17T04:57:21.048Z,17.93
2018-09-17T04:59:50.075Z,18.01
2018-09-17T05:02:19.012Z,18.07
2018-09-17T05:04:47.974Z,18.20
2018-09-17T05:07:16.965Z,18.29
2018-09-17T05:09:47.434Z,18.38
2018-09-17T05:12:16.456Z,18.47
2018-09-17T05:14:45.339Z,18.55
2018-09-17T05:17:14.339Z,18.60
2018-09-17T05:19:43.243Z,18.64
2018-09-17T05:22:12.135Z,18.72
2018-09-17T05:24:41.020Z,18.77
2018-09-17T05:27:09.972Z,18.83
2018-09-17T05:29:38.887Z,18.91
2018-09-17T05:32:07.828Z,18.95
2018-09-17T05:34:36.727Z,19.05
2018-09-17T05:37:05.755Z,19.09
2018-09-17T05:39:34.736Z,19.08
2018-09-17T05:42:03.643Z,19.09
2018-09-17T05:44:32.593Z,19.24
2018-09-17T05:47:01.472Z,19.34
2018-09-17T05:49:30.538Z,19.46
2018-09-17T05:51:59.422Z,19.50
2018-09-17T05:54:28.320Z,19.56
2018-09-17T05:56:57.331Z,19.54
2018-09-17T05:59:26.252Z,19.65
2018-09-17T06:01:55.164Z,19.65
2018-09-17T06:04:24.053Z,19.73
2018-09-17T06:06:52.963Z,19.78
2018-09-17T06:09:21.883Z,19.87
2018-09-17T06:11:52.213Z,19.89
2018-09-17T06:14:21.119Z,19.96
2018-09-17T06:16:50.034Z,19.82
2018-09-17T06:19:18.960Z,19.92
2018-09-17T06:21:47.880Z,20.07
2018-09-17T06:24:16.779Z,20.20
2018-09-17T06:26:45.685Z,20.08
2018-09-17T06:29:14.624Z,20.15
2018-09-17T06:31:43.531Z,20.24
2018-09-17T06:34:12.496Z,20.34
2018-09-17T06:36:41.383Z,20.42
2018-09-17T06:39:10.917Z,20.14
2018-09-17T06:41:39.903Z,20.14
2018-09-17T06:44:08.881Z,20.28
2018-09-17T06:46:37.774Z,20.04
2018-09-17T06:49:06.694Z,20.29
2018-09-17T06:51:35.592Z,20.43
2018-09-17T06:54:04.545Z,20.46
2018-09-17T06:56:35.953Z,20.48
2018-09-17T06:59:04.855Z,20.22
2018-09-17T07:01:33.789Z,20.23
2018-09-17T07:04:02.683Z,20.30
2018-09-17T07:06:31.579Z,20.40
2018-09-17T07:09:00.490Z,20.40
2018-09-17T07:11:29.400Z,20.48
2018-09-17T07:13:58.314Z,20.56
2018-09-17T07:16:27.226Z,20.62
2018-09-17T07:18:56.298Z,20.60
2018-09-17T07:21:25.254Z,20.62
2018-09-17T07:23:54.156Z,20.67
2018-09-17T07:26:23.152Z,20.77
2018-09-17T07:28:52.064Z,20.15
2018-09-17T07:31:21.030Z,20.07
2018-09-17T07:33:49.930Z,20.26
2018-09-17T07:36:18.896Z,20.53
2018-09-17T07:38:47.803Z,20.46
2018-09-17T07:41:16.756Z,20.18
2018-09-17T07:43:45.655Z,20.29
2018-09-17T07:46:14.908Z,20.52
2018-09-17T07:48:43.831Z,20.67
2018-09-17T07:51:12.708Z,20.80
2018-09-17T07:53:41.710Z,20.94
2018-09-17T07:56:10.617Z,21.08
2018-09-17T07:58:39.507Z,21.16
2018-09-17T08:01:08.597Z,21.04
2018-09-17T08:03:37.564Z,21.19
2018-09-17T08:06:06.487Z,21.29
2018-09-17T08:08:35.380Z,21.00
2018-09-17T08:11:04.311Z,20.87
2018-09-17T08:13:33.209Z,21.13
2018-09-17T08:16:02.127Z,21.26
2018-09-17T08:18:31.009Z,21.38
2018-09-17T08:20:59.916Z,21.36
2018-09-17T08:23:28.818Z,21.43
2018-09-17T08:25:57.764Z,21.44
2018-09-17T08:28:26.671Z,21.48
2018-09-17T08:30:55.570Z,21.59
2018-09-17T08:33:24.509Z,21.60
2018-09-17T08:35:53.405Z,21.62
2018-09-17T08:38:22.375Z,21.51
2018-09-17T08:40:51.260Z,21.70
2018-09-17T08:43:20.172Z,21.83
2018-09-17T08:45:49.473Z,21.89
2018-09-17T08:48:18.436Z,22.00
2018-09-17T08:50:47.384Z,22.07
2018-09-17T08:53:16.276Z,22.06
2018-09-17T08:55:45.202Z,22.24
2018-09-17T08:58:19.156Z,22.28
2018-09-17T09:00:53.266Z,22.16
2018-09-17T09:03:27.277Z,22.22
2018-09-17T09:06:01.245Z,22.26
2018-09-17T09:08:30.159Z,21.81
2018-09-17T09:11:04.220Z,22.02
2018-09-17T09:13:39.046Z,22.14
2018-09-17T09:18:31.131Z,22.30
2018-09-17T09:21:00.066Z,22.46
2018-09-17T09:23:28.964Z,22.49
2018-09-17T09:25:58.060Z,22.44
2018-09-17T09:28:26.976Z,22.43
2018-09-17T09:30:56.012Z,22.49
2018-09-17T09:33:24.886Z,22.48
2018-09-17T09:35:53.788Z,22.54
2018-09-17T09:38:22.721Z,22.62
2018-09-17T09:40:51.616Z,22.69
2018-09-17T09:43:20.536Z,22.77
2018-09-17T09:45:49.434Z,22.80
2018-09-17T09:48:18.393Z,22.86
2018-09-17T09:50:47.288Z,22.94
2018-09-17T09:53:16.199Z,22.98
2018-09-17T09:55:45.087Z,23.04
2018-09-17T09:58:13.970Z,23.02
2018-09-17T10:00:48.040Z,23.10
2018-09-17T10:03:17.656Z,23.07
2018-09-17T10:05:46.671Z,23.18
2018-09-17T10:08:15.592Z,23.21
2018-09-17T10:10:49.727Z,23.21
2018-09-17T10:13:23.708Z,23.27
2018-09-17T10:15:57.479Z,23.36
2018-09-17T10:18:31.469Z,23.39
2018-09-17T10:21:00.424Z,23.40
2018-09-17T10:23:29.388Z,23.40
2018-09-17T10:25:58.319Z,23.39
2018-09-17T10:28:27.276Z,23.51
2018-09-17T10:30:56.171Z,23.51
2018-09-17T10:33:25.085Z,23.55
2018-09-17T10:35:53.989Z,23.64
2018-09-17T10:38:22.892Z,23.75
2018-09-17T10:40:51.781Z,23.77
2018-09-17T10:43:20.783Z,23.82
2018-09-17T10:45:49.688Z,23.78
2018-09-17T10:48:18.636Z,23.81
2018-09-17T10:50:47.539Z,23.92
2018-09-17T10:53:16.476Z,23.97
2018-09-17T10:55:45.393Z,24.03
2018-09-17T10:58:14.292Z,24.01
2018-09-17T11:00:43.298Z,24.13
2018-09-17T11:03:12.209Z,24.16
2018-09-17T11:05:41.113Z,24.12
2018-09-17T11:08:10.024Z,24.06
2018-09-17T11:10:38.983Z,24.04
2018-09-17T11:13:07.901Z,24.08
2018-09-17T11:15:42.030Z,24.04
2018-09-17T11:18:10.965Z,23.97
2018-09-17T11:20:39.852Z,23.99
2018-09-17T11:23:08.898Z,24.02
2018-09-17T11:25:37.804Z,24.07
2018-09-17T11:28:06.712Z,24.06
2018-09-17T11:30:35.695Z,24.10
2018-09-17T11:33:04.687Z,24.10
2018-09-17T11:35:33.704Z,24.14
2018-09-17T11:38:02.789Z,24.18
2018-09-17T11:40:31.797Z,24.22
2018-09-17T11:43:00.707Z,24.17
2018-09-17T11:45:29.669Z,24.23
2018-09-17T11:47:58.530Z,24.31
2018-09-17T11:50:27.509Z,24.37
2018-09-17T11:52:56.435Z,24.36
2018-09-17T11:55:25.338Z,24.48
2018-09-17T11:57:54.247Z,24.51
2018-09-17T12:00:28.268Z,24.43
2018-09-17T12:03:02.367Z,24.57
2018-09-17T12:05:36.480Z,24.53
2018-09-17T12:08:11.053Z,24.59
2018-09-17T12:10:39.945Z,24.61
2018-09-17T12:13:08.835Z,24.56
2018-09-17T12:15:41.665Z,24.58
2018-09-17T12:18:13.471Z,24.56
2018-09-17T12:20:42.484Z,24.65
2018-09-17T12:23:11.790Z,24.67
2018-09-17T12:25:40.701Z,24.70
2018-09-17T12:30:53.613Z,24.70
2018-09-17T12:33:22.496Z,24.71
2018-09-17T12:35:54.591Z,24.76
2018-09-17T12:38:25.818Z,24.70
2018-09-17T12:40:54.710Z,24.87
2018-09-17T12:43:23.682Z,24.97
2018-09-17T12:45:52.631Z,25.04
2018-09-17T12:48:21.524Z,25.07
2018-09-17T12:50:50.403Z,25.12
2018-09-17T12:53:19.408Z,25.17
2018-09-17T12:55:48.344Z,25.14
2018-09-17T12:58:17.355Z,25.18
2018-09-17T13:00:46.417Z,25.25
2018-09-17T13:03:15.392Z,25.28
2018-09-17T13:05:44.339Z,25.26
2018-09-17T13:08:13.361Z,25.32
2018-09-17T13:10:42.249Z,25.38
2018-09-17T13:13:11.174Z,25.32
2018-09-17T13:15:45.188Z,25.28
2018-09-17T13:18:14.136Z,25.30
2018-09-17T13:20:43.147Z,25.34
2018-09-17T13:23:12.079Z,25.32
2018-09-17T13:25:41.074Z,25.32
2018-09-17T13:28:10.210Z,25.28
2018-09-17T13:30:39.128Z,25.39
2018-09-17T13:33:08.053Z,25.47
2018-09-17T13:35:36.959Z,25.43
2018-09-17T13:38:05.995Z,25.48
2018-09-17T13:40:34.905Z,25.51
2018-09-17T13:43:03.948Z,25.48
2018-09-17T13:45:32.905Z,25.47
2018-09-17T13:48:01.872Z,25.47
2018-09-17T13:50:30.782Z,25.46
2018-09-17T13:53:00.434Z,25.48
2018-09-17T13:55:29.339Z,25.49
2018-09-17T13:57:58.259Z,25.49
2018-09-17T14:00:27.478Z,25.55
2018-09-17T14:02:56.355Z,25.59
2018-09-17T14:05:25.414Z,25.55
2018-09-17T14:07:54.320Z,25.52
2018-09-17T14:10:23.258Z,25.56
2018-09-17T14:12:52.215Z,25.53
2018-09-17T14:15:21.103Z,25.56
2018-09-17T14:17:50.011Z,25.54
2018-09-17T14:20:18.968Z,25.51
2018-09-17T14:22:47.966Z,25.49
2018-09-17T14:25:16.907Z,25.38
2018-09-17T14:27:45.851Z,25.43
2018-09-17T14:30:14.751Z,25.41
2018-09-17T14:32:48.880Z,25.40
2018-09-17T14:35:17.867Z,25.41
2018-09-17T14:37:46.858Z,25.34
2018-09-17T14:40:15.751Z,25.26
2018-09-17T14:42:44.639Z,25.19
2018-09-17T14:45:13.581Z,25.18
2018-09-17T14:47:42.479Z,25.17
2018-09-17T14:50:11.427Z,25.10
2018-09-17T14:52:40.315Z,25.15
2018-09-17T14:55:09.269Z,25.17
2018-09-17T14:57:38.188Z,25.15
2018-09-17T15:00:07.209Z,25.16
2018-09-17T15:02:36.139Z,25.16
2018-09-17T15:05:05.121Z,25.13
2018-09-17T15:07:34.097Z,25.07
2018-09-17T15:10:03.021Z,25.06
2018-09-17T15:12:32.191Z,25.02
2018-09-17T15:15:01.126Z,25.01
2018-09-17T15:17:30.071Z,25.03
2018-09-17T15:19:59.052Z,24.96
2018-09-17T15:22:28.036Z,24.88
2018-09-17T15:24:57.111Z,24.92
2018-09-17T15:27:26.022Z,24.78
2018-09-17T15:29:54.977Z,24.76
2018-09-17T15:32:23.967Z,24.70
2018-09-17T15:34:52.912Z,24.64
2018-09-17T15:37:21.894Z,24.64
2018-09-17T15:39:50.891Z,24.57
2018-09-17T15:42:19.789Z,24.59
2018-09-17T15:44:48.727Z,24.50
2018-09-17T15:47:17.780Z,24.48
2018-09-17T15:49:46.755Z,24.42
2018-09-17T15:52:15.723Z,24.39
2018-09-17T15:54:45.274Z,24.39
2018-09-17T15:57:14.254Z,24.28
2018-09-17T15:59:43.160Z,24.28
2018-09-17T16:02:12.115Z,24.21
2018-09-17T16:04:41.105Z,24.16
2018-09-17T16:07:10.034Z,24.18
2018-09-17T16:09:38.966Z,24.10
2018-09-17T16:12:07.855Z,24.09
2018-09-17T16:14:36.747Z,24.08
2018-09-17T16:17:05.767Z,24.06
2018-09-17T16:19:34.729Z,24.09
2018-09-17T16:22:03.666Z,24.07
2018-09-17T16:24:32.609Z,24.08
2018-09-17T16:27:01.573Z,24.10
2018-09-17T16:29:30.474Z,24.01
2018-09-17T16:31:59.378Z,23.91
2018-09-17T16:34:28.303Z,23.87
2018-09-17T16:36:58.336Z,23.86
2018-09-17T16:39:27.264Z,23.79
2018-09-17T16:41:56.274Z,23.73
2018-09-17T16:44:25.252Z,23.73
2018-09-17T16:46:54.257Z,23.72
2018-09-17T16:49:23.204Z,23.69
2018-09-17T16:51:52.447Z,23.69
2018-09-17T16:54:21.408Z,23.58
2018-09-17T16:56:50.384Z,23.56
2018-09-17T16:59:50.521Z,23.44
2018-09-17T17:02:19.401Z,23.46
2018-09-17T17:04:48.433Z,23.34
2018-09-17T17:07:17.582Z,23.42
2018-09-17T17:09:46.673Z,23.83
2018-09-17T17:12:15.575Z,24.12
2018-09-17T17:14:44.492Z,24.22
2018-09-17T17:17:13.412Z,24.18
2018-09-17T17:19:42.324Z,24.06
2018-09-17T17:22:11.366Z,24.17
2018-09-17T17:24:40.276Z,24.26
2018-09-17T17:27:09.241Z,24.30
2018-09-17T17:29:38.236Z,24.34
2018-09-17T17:32:07.251Z,24.31
2018-09-17T17:34:36.184Z,24.30
2018-09-17T17:37:05.292Z,24.27
2018-09-17T17:39:34.275Z,24.22
2018-09-17T17:42:03.124Z,24.18
2018-09-17T17:44:32.051Z,24.14
2018-09-17T17:47:01.084Z,24.05
2018-09-17T17:50:33.294Z,23.92
2018-09-17T17:53:02.441Z,23.92
2018-09-17T17:55:31.520Z,23.91
2018-09-17T17:58:00.531Z,23.88
2018-09-17T18:00:29.524Z,23.78
2018-09-17T18:02:58.457Z,23.85
2018-09-17T18:05:27.346Z,23.76
2018-09-17T18:07:56.251Z,23.77
2018-09-17T18:10:25.188Z,23.69
2018-09-17T18:12:54.172Z,23.51
2018-09-17T18:15:23.299Z,23.43
2018-09-17T18:17:52.200Z,23.44
2018-09-17T18:20:21.122Z,23.44
2018-09-17T18:22:50.092Z,23.28
2018-09-17T18:25:18.973Z,23.22
2018-09-17T18:27:47.851Z,23.06
2018-09-17T18:30:16.807Z,23.08
2018-09-17T18:32:45.720Z,23.09
2018-09-17T18:35:14.655Z,23.05
2018-09-17T18:37:43.751Z,23.11
2018-09-17T18:40:12.796Z,23.20
2018-09-17T18:42:41.869Z,23.05
2018-09-17T18:45:10.807Z,23.06
2018-09-17T18:47:39.761Z,22.91
2018-09-17T18:50:08.939Z,22.83
2018-09-17T18:52:37.920Z,23.02
2018-09-17T18:55:06.906Z,23.01
2018-09-17T18:57:35.957Z,23.01
2018-09-17T19:00:05.103Z,22.91
2018-09-17T19:02:34.020Z,22.88
2018-09-17T19:05:02.995Z,22.85
2018-09-17T19:07:32.003Z,22.79
2018-09-17T19:10:00.928Z,22.81
2018-09-17T19:12:29.877Z,22.84
2018-09-17T19:15:04.154Z,22.94
2018-09-17T19:17:38.268Z,22.90
2018-09-17T19:20:08.651Z,22.60
2018-09-17T19:22:42.656Z,22.61
2018-09-17T19:25:13.686Z,22.48
2018-09-17T19:27:47.813Z,22.50
2018-09-17T19:30:17.104Z,22.59
2018-09-17T19:32:46.163Z,22.49
2018-09-17T19:35:15.152Z,22.39
2018-09-17T19:37:49.243Z,22.47
2018-09-17T19:40:19.626Z,22.57
2018-09-17T19:42:49.260Z,22.44
2018-09-17T19:45:23.345Z,22.50
2018-09-17T19:47:53.037Z,22.41
2018-09-17T19:50:27.183Z,22.32
2018-09-17T19:52:56.036Z,22.38
2018-09-17T19:55:24.989Z,22.34
2018-09-17T19:57:58.931Z,22.47
2018-09-17T20:00:27.856Z,22.47
2018-09-17T20:02:56.747Z,22.37
2018-09-17T20:05:30.859Z,22.43
2018-09-17T20:07:59.856Z,22.56
2018-09-17T20:10:28.821Z,22.55
2018-09-17T20:12:57.754Z,22.60
2018-09-17T20:15:26.708Z,22.59
2018-09-17T20:17:55.676Z,22.59
2018-09-17T20:20:24.660Z,22.70
2018-09-17T20:22:53.560Z,22.77
2018-09-17T20:25:22.464Z,22.87
2018-09-17T20:27:51.435Z,22.81
2018-09-17T20:30:20.364Z,22.86
2018-09-17T20:32:49.720Z,22.72
2018-09-17T20:35:18.707Z,22.48
2018-09-17T20:37:47.614Z,22.51
2018-09-17T20:40:16.692Z,22.50
2018-09-17T20:42:45.595Z,22.46
2018-09-17T20:45:14.479Z,22.40
2018-09-17T20:47:43.400Z,22.48
2018-09-17T20:50:12.352Z,22.47
2018-09-17T20:52:41.402Z,22.25
2018-09-17T20:55:10.327Z,22.27
2018-09-17T20:57:39.242Z,22.12
2018-09-17T21:00:08.195Z,22.15
2018-09-17T21:02:37.206Z,22.14
2018-09-17T21:05:06.136Z,22.13
2018-09-17T21:07:35.026Z,22.03
2018-09-17T21:10:03.987Z,21.98
2018-09-17T21:12:32.932Z,21.95
2018-09-17T21:15:01.921Z,21.95
2018-09-17T21:17:30.848Z,22.06
2018-09-17T21:19:59.784Z,21.99
2018-09-17T21:22:28.745Z,21.95
2018-09-17T21:24:57.913Z,22.09
2018-09-17T21:27:26.771Z,21.92
2018-09-17T21:29:55.719Z,22.01
2018-09-17T21:32:24.672Z,21.98
2018-09-17T21:34:53.798Z,21.87
2018-09-17T21:37:23.080Z,22.03
2018-09-17T21:39:51.980Z,21.93
2018-09-17T21:42:20.927Z,21.71
2018-09-17T21:44:49.843Z,21.80
2018-09-17T21:47:19.037Z,21.63
2018-09-17T21:49:47.962Z,21.79
2018-09-17T21:52:16.892Z,21.81
2018-09-17T21:54:45.799Z,21.94
2018-09-17T21:57:14.841Z,22.04
2018-09-17T21:59:43.824Z,21.99
2018-09-17T22:02:13.791Z,21.99
2018-09-17T22:04:42.737Z,22.08
2018-09-17T22:07:11.620Z,21.91
2018-09-17T22:09:40.708Z,22.06
2018-09-17T22:12:09.668Z,21.93
2018-09-17T22:14:38.681Z,21.94
2018-09-17T22:17:07.656Z,22.01
2018-09-17T22:19:36.634Z,21.87
2018-09-17T22:22:05.571Z,21.89
2018-09-17T22:24:34.514Z,21.72
2018-09-17T22:27:03.589Z,21.88
2018-09-17T22:29:32.474Z,21.89
2018-09-17T22:32:01.413Z,21.93
2018-09-17T22:34:30.299Z,22.02
2018-09-17T22:36:59.370Z,21.94
2018-09-17T22:39:28.259Z,22.06
2018-09-17T22:41:57.188Z,22.07
2018-09-17T22:44:26.156Z,22.11
2018-09-17T22:46:55.424Z,22.13
2018-09-17T22:49:24.313Z,22.13
2018-09-17T22:51:53.264Z,21.98
2018-09-17T22:54:22.179Z,21.92
2018-09-17T22:56:51.173Z,22.03
2018-09-17T22:59:20.141Z,22.04
2018-09-17T23:01:49.040Z,22.07
2018-09-17T23:04:17.906Z,22.05
2018-09-17T23:06:46.795Z,22.14
2018-09-17T23:09:15.695Z,22.15
2018-09-17T23:11:44.618Z,22.04
2018-09-17T23:14:13.491Z,22.09
2018-09-17T23:16:42.408Z,22.03
2018-09-17T23:19:11.535Z,22.07
2018-09-17T23:21:40.524Z,22.01
2018-09-17T23:24:09.460Z,22.10
2018-09-17T23:26:38.350Z,22.09
2018-09-17T23:29:07.232Z,22.11
2018-09-17T23:31:36.180Z,22.08
2018-09-17T23:34:05.160Z,22.03
2018-09-17T23:36:34.056Z,22.04
2018-09-17T23:39:03.109Z,21.86
2018-09-17T23:41:32.005Z,21.76
2018-09-17T23:44:00.956Z,21.77
2018-09-17T23:46:29.856Z,21.59
2018-09-17T23:48:58.878Z,21.69
2018-09-17T23:51:27.815Z,21.78
2018-09-17T23:53:56.721Z,21.81
2018-09-17T23:56:25.650Z,21.81
2018-09-17T23:58:54.532Z,21.88
